createdAt,value
2022-10-18T00:00:09.578Z,26.65
2022-10-18T00:02:38.323Z,27.60
2022-10-18T00:05:05.800Z,28.27
2022-10-18T00:07:33.273Z,26.55
2022-10-18T00:10:00.631Z,26.85
2022-10-18T00:12:27.879Z,26.25
2022-10-18T00:14:55.038Z,28.75
2022-10-18T00:17:22.202Z,27.65
2022-10-18T00:19:50.336Z,28.42
2022-10-18T00:22:17.460Z,27.20
2022-10-18T00:24:44.630Z,29.00
2022-10-18T00:27:11.807Z,28.20
2022-10-18T00:29:39.019Z,26.45
2022-10-18T00:32:06.198Z,27.27
2022-10-18T00:34:33.334Z,28.75
2022-10-18T00:37:00.481Z,27.00
2022-10-18T00:39:27.663Z,27.33
2022-10-18T00:41:55.013Z,27.15
2022-10-18T00:44:24.911Z,27.15
2022-10-18T00:46:55.721Z,27.88
2022-10-18T00:49:31.125Z,25.88
2022-10-18T00:52:03.842Z,28.80
2022-10-18T00:54:34.554Z,28.00
2022-10-18T00:57:02.631Z,28.85
2022-10-18T00:59:30.165Z,26.45
2022-10-18T01:01:57.456Z,27.38
2022-10-18T01:04:25.248Z,27.30
2022-10-18T01:07:28.916Z,29.73
2022-10-18T01:10:13.996Z,27.70
2022-10-18T01:13:10.190Z,29.30
2022-10-18T01:16:01.278Z,27.42
2022-10-18T01:18:36.222Z,27.75
2022-10-18T01:21:08.866Z,27.02
2022-10-18T01:23:57.547Z,25.75
2022-10-18T01:26:44.262Z,28.02
2022-10-18T01:29:42.348Z,28.17
2022-10-18T01:32:18.856Z,27.35
2022-10-18T01:34:48.817Z,27.30
2022-10-18T01:37:17.790Z,27.33
2022-10-18T01:39:47.866Z,29.80
2022-10-18T01:42:19.556Z,27.48
2022-10-18T01:44:48.324Z,26.77
2022-10-18T01:47:16.737Z,27.35
2022-10-18T01:49:43.870Z,29.45
2022-10-18T01:52:15.805Z,28.92
2022-10-18T01:54:46.136Z,26.85
2022-10-18T01:57:51.894Z,26.85
2022-10-18T02:00:35.078Z,26.05
2022-10-18T02:03:10.857Z,27.30
2022-10-18T02:05:46.602Z,25.80
2022-10-18T02:08:32.122Z,29.45
2022-10-18T02:11:04.734Z,26.85
2022-10-18T02:13:38.771Z,27.40
2022-10-18T02:16:12.035Z,27.48
2022-10-18T02:18:43.923Z,25.88
2022-10-18T02:21:14.151Z,28.25
2022-10-18T02:23:43.994Z,27.10
2022-10-18T02:26:11.476Z,28.17
2022-10-18T02:28:39.482Z,27.50
2022-10-18T02:31:20.334Z,25.83
2022-10-18T02:33:55.684Z,25.95
2022-10-18T02:36:28.788Z,26.85
2022-10-18T02:39:02.112Z,27.55
2022-10-18T02:41:30.875Z,25.63
2022-10-18T02:43:58.008Z,26.05
2022-10-18T02:48:57.242Z,28.67
2022-10-18T02:51:25.158Z,29.05
2022-10-18T02:53:52.368Z,28.45
2022-10-18T02:56:19.490Z,25.25
2022-10-18T02:58:46.594Z,27.88
2022-10-18T03:01:13.866Z,28.02
2022-10-18T03:03:41.114Z,26.23
2022-10-18T03:06:08.272Z,26.38
2022-10-18T03:08:36.461Z,27.20
2022-10-18T03:11:03.586Z,25.90
2022-10-18T03:16:02.703Z,27.00
2022-10-18T03:18:29.831Z,25.75
2022-10-18T03:20:56.891Z,27.42
2022-10-18T03:23:23.973Z,26.90
2022-10-18T03:25:51.156Z,26.25
2022-10-18T03:28:18.272Z,25.63
2022-10-18T03:30:45.452Z,26.67
2022-10-18T03:33:12.934Z,26.52
2022-10-18T03:35:40.036Z,25.63
2022-10-18T03:38:07.268Z,28.23
2022-10-18T03:40:34.750Z,27.13
2022-10-18T03:43:01.915Z,44.67
2022-10-18T03:45:31.290Z,46.28
2022-10-18T03:47:58.787Z,65.55
2022-10-18T03:50:25.904Z,68.22
2022-10-18T03:52:54.475Z,48.13
2022-10-18T03:55:21.822Z,41.70
2022-10-18T03:57:50.180Z,40.80
2022-10-18T04:00:17.565Z,36.92
2022-10-18T04:02:44.668Z,33.28
2022-10-18T04:05:12.880Z,32.10
2022-10-18T04:07:40.185Z,31.27
2022-10-18T04:10:08.000Z,29.55
2022-10-18T04:12:35.139Z,30.67
2022-10-18T04:15:03.065Z,29.27
2022-10-18T04:17:30.527Z,29.17
2022-10-18T04:19:57.782Z,31.50
2022-10-18T04:22:24.915Z,30.08
2022-10-18T04:24:53.311Z,27.08
2022-10-18T04:27:20.435Z,29.17
2022-10-18T04:29:47.526Z,27.30
2022-10-18T04:32:14.763Z,27.98
2022-10-18T04:37:13.878Z,30.00
2022-10-18T04:39:40.968Z,28.65
2022-10-18T04:42:08.272Z,27.60
2022-10-18T04:44:35.423Z,25.30
2022-10-18T04:47:02.681Z,27.42
2022-10-18T04:49:29.810Z,27.80
2022-10-18T04:51:56.874Z,27.55
2022-10-18T04:54:26.514Z,26.77
2022-10-18T04:56:55.787Z,27.73
2022-10-18T04:59:22.887Z,26.83
2022-10-18T05:01:50.074Z,28.83
2022-10-18T05:04:17.222Z,28.05
2022-10-18T05:06:44.283Z,27.90
2022-10-18T05:09:11.382Z,28.15
2022-10-18T05:11:38.599Z,28.25
2022-10-18T05:14:05.738Z,28.65
2022-10-18T05:16:33.096Z,26.50
2022-10-18T05:19:00.206Z,26.38
2022-10-18T05:21:27.381Z,26.35
2022-10-18T05:23:58.035Z,28.92
2022-10-18T05:26:25.143Z,26.85
2022-10-18T05:28:52.247Z,27.92
2022-10-18T05:31:19.366Z,27.90
2022-10-18T05:33:46.605Z,25.50
2022-10-18T05:36:13.851Z,28.05
2022-10-18T05:38:45.373Z,25.17
2022-10-18T05:41:12.826Z,26.13
2022-10-18T05:43:40.746Z,25.48
2022-10-18T05:46:13.549Z,24.98
2022-10-18T05:48:43.999Z,26.98
2022-10-18T05:51:11.288Z,24.67
2022-10-18T05:53:38.551Z,26.48
2022-10-18T05:56:07.203Z,24.02
2022-10-18T05:58:34.932Z,27.88
2022-10-18T06:01:03.682Z,23.35
2022-10-18T06:03:31.082Z,22.33
2022-10-18T06:06:06.105Z,23.95
2022-10-18T06:08:34.378Z,24.25
2022-10-18T06:11:06.948Z,22.80
2022-10-18T06:13:34.298Z,20.90
2022-10-18T06:16:01.466Z,23.20
2022-10-18T06:18:29.724Z,21.02
2022-10-18T06:20:58.266Z,22.13
2022-10-18T06:23:29.110Z,20.58
2022-10-18T06:26:01.000Z,20.25
2022-10-18T06:28:29.769Z,22.30
2022-10-18T06:30:57.917Z,21.42
2022-10-18T06:33:25.656Z,21.02
2022-10-18T06:36:01.322Z,20.77
2022-10-18T06:38:29.818Z,19.85
2022-10-18T06:40:58.022Z,18.95
2022-10-18T06:43:25.580Z,17.55
2022-10-18T06:45:53.325Z,16.65
2022-10-18T06:48:21.369Z,18.20
2022-10-18T06:50:59.115Z,18.88
2022-10-18T06:53:28.086Z,18.73
2022-10-18T06:56:10.339Z,18.58
2022-10-18T06:58:37.943Z,16.98
2022-10-18T07:01:23.047Z,17.00
2022-10-18T07:03:53.223Z,18.20
2022-10-18T07:06:21.073Z,16.02
2022-10-18T07:08:49.345Z,17.02
2022-10-18T07:11:19.472Z,18.75
2022-10-18T07:13:46.757Z,16.40
2022-10-18T07:16:18.324Z,15.45
2022-10-18T07:18:52.149Z,16.23
2022-10-18T07:21:22.690Z,16.58
2022-10-18T07:23:50.815Z,17.00
2022-10-18T07:26:32.039Z,16.67
2022-10-18T07:29:05.475Z,16.95
2022-10-18T07:34:00.646Z,16.13
2022-10-18T07:36:27.761Z,19.27
2022-10-18T07:38:54.967Z,19.52
2022-10-18T07:41:22.749Z,18.30
2022-10-18T07:43:51.789Z,18.88
2022-10-18T07:46:21.210Z,16.58
2022-10-18T07:48:49.125Z,18.75
2022-10-18T07:51:17.148Z,19.15
2022-10-18T07:53:44.263Z,18.13
2022-10-18T07:56:17.049Z,19.77
2022-10-18T07:58:45.334Z,19.40
2022-10-18T08:01:13.511Z,20.60
2022-10-18T08:03:41.967Z,22.38
2022-10-18T08:06:11.008Z,23.13
2022-10-18T08:08:40.354Z,22.52
2022-10-18T08:11:27.701Z,24.58
2022-10-18T08:13:55.067Z,24.52
2022-10-18T08:16:24.748Z,23.45
2022-10-18T08:18:52.529Z,27.02
2022-10-18T08:21:21.083Z,26.65
2022-10-18T08:23:49.154Z,26.50
2022-10-18T08:26:18.558Z,28.10
2022-10-18T08:28:54.108Z,32.50
2022-10-18T08:31:26.569Z,30.58
2022-10-18T08:33:57.179Z,34.05
2022-10-18T08:36:24.867Z,36.42
2022-10-18T08:38:52.320Z,37.22
2022-10-18T08:41:36.635Z,36.15
2022-10-18T08:44:33.021Z,40.70
2022-10-18T08:47:07.002Z,40.17
2022-10-18T08:49:36.875Z,42.10
2022-10-18T08:52:12.322Z,41.22
2022-10-18T08:55:00.050Z,38.90
2022-10-18T08:57:27.326Z,40.85
2022-10-18T08:59:54.517Z,40.15
2022-10-18T09:02:49.634Z,41.65
2022-10-18T09:05:27.653Z,42.28
2022-10-18T09:08:38.978Z,41.67
2022-10-18T09:11:33.350Z,43.65
2022-10-18T09:14:17.626Z,42.88
2022-10-18T09:16:53.234Z,42.42
2022-10-18T09:19:29.390Z,41.05
2022-10-18T09:22:11.912Z,40.45
2022-10-18T09:24:39.947Z,42.60
2022-10-18T09:27:18.228Z,41.75
2022-10-18T09:29:48.224Z,40.65
2022-10-18T09:32:27.349Z,39.92
2022-10-18T09:35:15.732Z,43.10
2022-10-18T09:37:44.418Z,40.58
2022-10-18T09:40:18.983Z,39.00
2022-10-18T09:42:58.331Z,39.08
2022-10-18T09:45:32.634Z,39.70
2022-10-18T09:48:03.095Z,39.63
2022-10-18T09:50:42.412Z,38.50
2022-10-18T09:53:38.147Z,41.35
2022-10-18T09:56:09.411Z,40.13
2022-10-18T09:58:47.697Z,40.10
2022-10-18T10:01:19.781Z,38.63
2022-10-18T10:03:46.932Z,38.53
2022-10-18T10:06:16.623Z,36.38
2022-10-18T10:08:48.891Z,39.20
2022-10-18T10:11:36.147Z,39.90
2022-10-18T10:16:54.846Z,39.55
2022-10-18T10:19:55.620Z,39.55
2022-10-18T10:22:35.769Z,38.17
2022-10-18T10:25:04.063Z,37.88
2022-10-18T10:27:43.547Z,38.13
2022-10-18T10:30:37.408Z,38.80
2022-10-18T10:38:29.355Z,40.53
2022-10-18T10:40:57.734Z,39.40
2022-10-18T10:43:44.056Z,41.72
2022-10-18T10:46:18.828Z,38.42
2022-10-18T10:48:49.689Z,39.53
2022-10-18T10:51:28.796Z,40.33
2022-10-18T10:54:24.413Z,38.38
2022-10-18T10:57:05.025Z,40.33
2022-10-18T11:02:14.212Z,39.10
2022-10-18T11:04:42.837Z,41.03
2022-10-18T11:07:09.892Z,37.58
2022-10-18T11:09:45.765Z,42.03
2022-10-18T11:12:28.549Z,40.72
2022-10-18T11:15:13.875Z,40.92
2022-10-18T11:18:04.684Z,38.05
2022-10-18T11:21:13.086Z,40.38
2022-10-18T11:23:42.855Z,38.88
2022-10-18T11:26:12.768Z,35.25
2022-10-18T11:28:54.413Z,36.45
2022-10-18T11:31:47.317Z,38.00
2022-10-18T11:34:47.387Z,35.78
2022-10-18T11:37:42.214Z,37.13
2022-10-18T11:40:32.416Z,37.08
2022-10-18T11:43:16.475Z,35.58
2022-10-18T11:46:12.719Z,36.95
2022-10-18T11:49:14.052Z,36.85
2022-10-18T11:52:07.728Z,37.28
2022-10-18T11:54:56.873Z,38.03
2022-10-18T11:58:03.792Z,38.78
2022-10-18T12:00:33.573Z,38.40
2022-10-18T12:03:07.423Z,33.17
2022-10-18T12:05:37.996Z,33.67
2022-10-18T12:08:23.098Z,32.80
2022-10-18T12:11:08.949Z,32.80
2022-10-18T12:13:46.318Z,37.63
2022-10-18T12:16:14.362Z,37.00
2022-10-18T12:19:04.430Z,35.35
2022-10-18T12:21:34.177Z,34.28
2022-10-18T12:24:11.035Z,30.63
2022-10-18T12:26:38.526Z,33.95
2022-10-18T12:29:08.341Z,32.58
2022-10-18T12:31:59.007Z,31.95
2022-10-18T12:34:32.027Z,31.17
2022-10-18T12:40:09.448Z,32.25
2022-10-18T12:42:42.764Z,34.30
2022-10-18T12:45:32.217Z,31.50
2022-10-18T12:48:01.987Z,30.92
2022-10-18T12:50:42.051Z,32.53
2022-10-18T12:53:12.281Z,30.75
2022-10-18T12:55:44.607Z,31.13
2022-10-18T12:58:14.767Z,26.55
2022-10-18T13:00:41.839Z,25.45
2022-10-18T13:03:17.973Z,29.17
2022-10-18T13:05:53.500Z,25.58
2022-10-18T13:08:27.904Z,27.83
2022-10-18T13:11:10.174Z,29.00
2022-10-18T13:13:52.360Z,31.73
2022-10-18T13:16:46.746Z,28.55
2022-10-18T13:19:32.687Z,31.25
2022-10-18T13:21:59.727Z,30.70
2022-10-18T13:24:32.070Z,25.23
2022-10-18T13:27:35.832Z,26.38
2022-10-18T13:30:21.869Z,24.27
2022-10-18T13:33:16.691Z,25.17
2022-10-18T13:36:07.055Z,27.88
2022-10-18T13:38:55.676Z,25.13
2022-10-18T13:41:34.392Z,25.08
2022-10-18T13:44:37.739Z,27.67
2022-10-18T13:47:05.488Z,28.23
2022-10-18T13:49:48.883Z,24.73
2022-10-18T13:52:47.047Z,29.75
2022-10-18T13:55:29.306Z,28.42
2022-10-18T13:58:17.298Z,27.55
2022-10-18T14:00:52.462Z,26.00
2022-10-18T14:03:56.985Z,25.48
2022-10-18T14:06:32.640Z,24.40
2022-10-18T14:09:25.707Z,24.40
2022-10-18T14:12:14.704Z,22.02
2022-10-18T14:14:54.927Z,20.10
2022-10-18T14:17:50.012Z,23.13
2022-10-18T14:20:20.924Z,24.65
2022-10-18T14:22:53.558Z,21.42
2022-10-18T14:25:41.299Z,20.90
2022-10-18T14:28:15.618Z,19.27
2022-10-18T14:31:07.305Z,20.45
2022-10-18T14:33:34.394Z,21.90
2022-10-18T14:36:08.153Z,21.35
2022-10-18T14:38:45.742Z,19.55
2022-10-18T14:41:26.466Z,23.88
2022-10-18T14:44:16.525Z,20.92
2022-10-18T14:46:48.726Z,21.48
2022-10-18T14:49:18.101Z,20.03
2022-10-18T14:51:48.691Z,21.30
2022-10-18T14:54:31.956Z,23.73
2022-10-18T14:57:01.133Z,22.98
2022-10-18T14:59:32.462Z,21.77
2022-10-18T15:02:05.006Z,21.60
2022-10-18T15:04:33.179Z,24.27
2022-10-18T15:07:02.010Z,22.80
2022-10-18T15:09:30.536Z,22.73
2022-10-18T15:11:58.375Z,24.25
2022-10-18T15:14:27.523Z,22.77
2022-10-18T15:17:00.541Z,19.67
2022-10-18T15:19:31.222Z,20.55
2022-10-18T15:22:31.219Z,25.80
2022-10-18T15:25:18.260Z,21.55
2022-10-18T15:27:48.544Z,23.27
2022-10-18T15:30:18.701Z,23.38
2022-10-18T15:32:55.989Z,21.38
2022-10-18T15:35:32.294Z,25.10
2022-10-18T15:38:04.844Z,23.45
2022-10-18T15:40:36.033Z,21.00
2022-10-18T15:43:06.162Z,23.05
2022-10-18T15:45:37.531Z,22.27
2022-10-18T15:48:10.632Z,20.60
2022-10-18T15:50:39.668Z,22.15
2022-10-18T15:53:25.207Z,20.10
2022-10-18T15:56:01.191Z,22.35
2022-10-18T15:58:36.210Z,23.95
2022-10-18T16:01:04.440Z,21.65
2022-10-18T16:03:35.740Z,24.00
2022-10-18T16:06:07.532Z,22.90
2022-10-18T16:08:40.945Z,25.40
2022-10-18T16:11:14.814Z,24.90
2022-10-18T16:13:43.983Z,22.92
2022-10-18T16:16:17.880Z,25.35
2022-10-18T16:18:45.294Z,23.73
2022-10-18T16:21:20.526Z,23.27
2022-10-18T16:23:49.049Z,25.25
2022-10-18T16:26:17.693Z,24.70
2022-10-18T16:28:45.907Z,23.02
2022-10-18T16:31:24.725Z,27.15
2022-10-18T16:33:54.792Z,24.95
2022-10-18T16:36:33.458Z,24.08
2022-10-18T16:39:03.806Z,22.17
2022-10-18T16:41:30.909Z,24.92
2022-10-18T16:43:58.002Z,24.25
2022-10-18T16:46:28.774Z,22.73
2022-10-18T16:48:56.890Z,23.73
2022-10-18T16:51:24.264Z,22.92
2022-10-18T16:53:53.331Z,25.35
2022-10-18T16:56:32.124Z,23.50
2022-10-18T16:59:00.383Z,22.88
2022-10-18T17:01:27.982Z,25.85
2022-10-18T17:03:55.314Z,23.92
2022-10-18T17:06:26.861Z,23.70
2022-10-18T17:08:55.318Z,25.73
2022-10-18T17:11:24.513Z,24.60
2022-10-18T17:13:51.617Z,25.95
2022-10-18T17:18:57.716Z,24.73
2022-10-18T17:21:26.362Z,24.65
2022-10-18T17:23:53.546Z,24.38
2022-10-18T17:26:28.930Z,22.77
2022-10-18T17:29:02.930Z,24.13
2022-10-18T17:33:59.735Z,24.63
2022-10-18T17:36:27.136Z,23.38
2022-10-18T17:38:54.782Z,24.30
2022-10-18T17:41:22.312Z,25.60
2022-10-18T17:43:49.822Z,26.58
2022-10-18T17:46:17.952Z,24.63
2022-10-18T17:48:45.581Z,26.80
2022-10-18T17:51:15.135Z,26.48
2022-10-18T17:53:42.355Z,28.63
2022-10-18T17:56:10.531Z,26.48
2022-10-18T17:58:37.753Z,26.70
2022-10-18T18:01:19.423Z,27.50
2022-10-18T18:03:49.677Z,27.27
2022-10-18T18:06:23.713Z,29.52
2022-10-18T18:08:50.884Z,28.27
2022-10-18T18:11:18.670Z,28.30
2022-10-18T18:13:45.948Z,28.33
2022-10-18T18:16:22.026Z,25.70
2022-10-18T18:18:52.097Z,26.55
2022-10-18T18:21:20.283Z,25.05
2022-10-18T18:23:48.527Z,25.58
2022-10-18T18:26:17.606Z,26.67
2022-10-18T18:28:44.922Z,25.52
2022-10-18T18:31:16.396Z,26.30
2022-10-18T18:33:43.827Z,28.35
2022-10-18T18:36:11.691Z,29.23
2022-10-18T18:38:42.527Z,28.58
2022-10-18T18:41:18.586Z,29.90
2022-10-18T18:43:51.170Z,28.08
2022-10-18T18:46:18.416Z,28.47
2022-10-18T18:48:45.619Z,26.45
2022-10-18T18:51:15.779Z,26.60
2022-10-18T18:53:44.243Z,26.35
2022-10-18T18:56:14.582Z,25.58
2022-10-18T18:58:43.987Z,24.65
2022-10-18T19:01:14.878Z,25.27
2022-10-18T19:03:42.947Z,26.70
2022-10-18T19:06:15.859Z,23.92
2022-10-18T19:08:44.839Z,24.45
2022-10-18T19:11:17.970Z,24.10
2022-10-18T19:13:45.606Z,24.52
2022-10-18T19:16:27.797Z,27.88
2022-10-18T19:19:06.832Z,29.88
2022-10-18T19:21:44.243Z,30.02
2022-10-18T19:24:11.779Z,32.50
2022-10-18T19:26:50.302Z,33.33
2022-10-18T19:29:22.596Z,27.52
2022-10-18T19:31:54.825Z,33.58
2022-10-18T19:34:23.735Z,33.05
2022-10-18T19:36:51.793Z,37.72
2022-10-18T19:39:22.030Z,34.78
2022-10-18T19:41:51.730Z,37.30
2022-10-18T19:44:19.741Z,36.42
2022-10-18T19:46:48.219Z,35.67
2022-10-18T19:49:16.388Z,37.20
2022-10-18T19:51:43.668Z,34.85
2022-10-18T19:54:11.950Z,34.55
2022-10-18T19:56:41.058Z,38.17
2022-10-18T19:59:09.036Z,37.75
2022-10-18T20:01:36.960Z,37.15
2022-10-18T20:04:04.751Z,34.83
2022-10-18T20:06:32.171Z,34.65
2022-10-18T20:08:59.482Z,36.55
2022-10-18T20:11:28.411Z,33.75
2022-10-18T20:13:55.997Z,35.20
2022-10-18T20:16:28.888Z,34.78
2022-10-18T20:19:01.393Z,34.05
2022-10-18T20:21:30.099Z,33.17
2022-10-18T20:23:57.495Z,31.38
2022-10-18T20:26:25.454Z,31.08
2022-10-18T20:28:57.122Z,32.70
2022-10-18T20:31:26.464Z,32.42
2022-10-18T20:34:04.975Z,31.90
2022-10-18T20:36:32.921Z,34.25
2022-10-18T20:39:00.731Z,33.20
2022-10-18T20:41:34.011Z,31.33
2022-10-18T20:44:03.966Z,31.40
2022-10-18T20:46:33.694Z,34.13
2022-10-18T20:49:01.042Z,33.00
2022-10-18T20:51:28.564Z,32.60
2022-10-18T20:53:55.783Z,32.17
2022-10-18T20:56:26.539Z,31.13
2022-10-18T20:58:56.498Z,33.63
2022-10-18T21:01:26.394Z,33.55
2022-10-18T21:03:55.932Z,31.50
2022-10-18T21:06:34.668Z,29.65
2022-10-18T21:09:05.659Z,30.80
2022-10-18T21:11:36.713Z,29.90
2022-10-18T21:14:05.067Z,30.85
2022-10-18T21:16:34.955Z,27.80
2022-10-18T21:19:07.442Z,30.42
2022-10-18T21:21:35.200Z,29.33
2022-10-18T21:24:05.532Z,31.20
2022-10-18T21:26:35.695Z,30.67
2022-10-18T21:29:04.299Z,31.30
2022-10-18T21:31:37.188Z,32.00
2022-10-18T21:34:07.390Z,29.83
2022-10-18T21:36:36.737Z,30.02
2022-10-18T21:39:06.344Z,30.17
2022-10-18T21:41:34.266Z,30.20
2022-10-18T21:44:04.505Z,30.25
2022-10-18T21:46:34.697Z,31.10
2022-10-18T21:49:01.798Z,31.23
2022-10-18T21:51:29.274Z,29.10
2022-10-18T21:53:58.148Z,31.52
2022-10-18T21:56:27.741Z,31.60
2022-10-18T21:58:55.726Z,30.90
2022-10-18T22:01:26.195Z,32.47
2022-10-18T22:03:55.686Z,31.33
2022-10-18T22:06:23.995Z,30.30
2022-10-18T22:08:54.167Z,30.75
2022-10-18T22:11:25.724Z,32.78
2022-10-18T22:13:53.154Z,31.08
2022-10-18T22:16:20.819Z,30.05
2022-10-18T22:18:49.066Z,29.45
2022-10-18T22:21:18.158Z,30.88
2022-10-18T22:23:47.556Z,30.85
2022-10-18T22:26:20.442Z,32.05
2022-10-18T22:28:53.125Z,31.27
2022-10-18T22:31:23.067Z,32.77
2022-10-18T22:33:58.911Z,32.03
2022-10-18T22:36:26.679Z,31.75
2022-10-18T22:38:54.046Z,31.20
2022-10-18T22:41:21.613Z,33.13
2022-10-18T22:43:50.319Z,29.48
2022-10-18T22:46:17.863Z,32.35
2022-10-18T22:48:45.408Z,31.65
2022-10-18T22:51:12.966Z,33.70
2022-10-18T22:53:40.945Z,32.83
2022-10-18T22:56:11.811Z,32.03
2022-10-18T22:58:38.894Z,32.95
2022-10-18T23:01:10.142Z,30.80
2022-10-18T23:03:38.203Z,32.70
2022-10-18T23:06:17.062Z,33.38
2022-10-18T23:08:44.139Z,34.67
2022-10-18T23:11:11.287Z,34.88
2022-10-18T23:13:39.625Z,33.55
2022-10-18T23:16:07.258Z,32.40
2022-10-18T23:18:34.749Z,32.88
2022-10-18T23:21:09.229Z,30.92
2022-10-18T23:23:38.333Z,33.08
2022-10-18T23:26:08.187Z,32.55
2022-10-18T23:28:37.292Z,30.67
2022-10-18T23:31:09.821Z,28.90
2022-10-18T23:33:37.476Z,29.92
2022-10-18T23:36:05.734Z,29.02
2022-10-18T23:38:34.056Z,28.48
2022-10-18T23:41:01.177Z,29.13
2022-10-18T23:43:28.350Z,31.60
2022-10-18T23:45:55.512Z,32.80
2022-10-18T23:48:22.594Z,32.20
2022-10-18T23:50:49.946Z,31.58
2022-10-18T23:53:19.476Z,30.25
2022-10-18T23:55:53.893Z,30.10
2022-10-18T23:58:21.412Z,30.92
